createdAt,value
2019-06-10T00:02:10.908Z,100648.64
2019-06-10T00:04:43.471Z,100645.38
2019-06-10T00:07:16.715Z,100644.13
2019-06-10T00:09:51.150Z,100637.56
2019-06-10T00:12:24.217Z,100643.94
2019-06-10T00:14:58.656Z,100642.50
2019-06-10T00:17:31.889Z,100641.25
2019-06-10T00:20:08.361Z,100643.72
2019-06-10T00:22:42.735Z,100639.43
2019-06-10T00:25:15.829Z,100633.67
2019-06-10T00:27:51.071Z,100644.56
2019-06-10T00:30:23.844Z,100649.92
2019-06-10T00:32:58.509Z,100643.53
2019-06-10T00:35:31.573Z,100644.78
2019-06-10T00:38:07.259Z,100635.72
2019-06-10T00:40:41.637Z,100637.36
2019-06-10T00:43:13.727Z,100638.78
2019-06-10T00:45:47.924Z,100639.60
2019-06-10T00:48:26.179Z,100637.35
2019-06-10T00:50:56.294Z,100633.05
2019-06-10T00:53:31.630Z,100634.27
2019-06-10T00:56:05.632Z,100636.73
2019-06-10T00:58:40.816Z,100638.77
2019-06-10T01:01:14.739Z,100630.97
2019-06-10T01:03:47.748Z,100626.24
2019-06-10T01:06:21.539Z,100627.27
2019-06-10T01:08:55.679Z,100626.86
2019-06-10T01:11:31.036Z,100622.56
2019-06-10T01:14:03.413Z,100620.72
2019-06-10T01:16:36.720Z,100623.98
2019-06-10T01:19:12.444Z,100622.54
2019-06-10T01:21:44.690Z,100616.81
2019-06-10T01:24:18.192Z,100620.30
2019-06-10T01:26:51.535Z,100620.09
2019-06-10T01:29:24.813Z,100615.36
2019-06-10T01:31:58.128Z,100626.06
2019-06-10T01:34:31.407Z,100630.16
2019-06-10T01:37:04.724Z,100618.66
2019-06-10T01:39:37.989Z,100618.87
2019-06-10T01:42:12.822Z,100623.58
2019-06-10T01:44:46.220Z,100618.66
2019-06-10T01:47:21.577Z,100623.59
2019-06-10T01:49:54.567Z,100624.39
2019-06-10T01:52:27.880Z,100620.29
2019-06-10T01:55:01.653Z,100618.86
2019-06-10T01:57:34.935Z,100616.20
2019-06-10T02:00:09.930Z,100613.33
2019-06-10T02:02:44.898Z,100611.67
2019-06-10T02:05:19.423Z,100605.73
2019-06-10T02:07:52.766Z,100608.80
2019-06-10T02:10:26.029Z,100605.11
2019-06-10T02:13:01.280Z,100605.51
2019-06-10T02:15:33.664Z,100601.83
2019-06-10T02:18:06.961Z,100601.41
2019-06-10T02:20:41.246Z,100602.45
2019-06-10T02:23:15.522Z,100595.69
2019-06-10T02:25:51.175Z,100594.84
2019-06-10T02:28:24.244Z,100595.88
2019-06-10T02:30:57.517Z,100599.36
2019-06-10T02:33:36.057Z,100600.61
2019-06-10T02:36:05.201Z,100591.97
2019-06-10T02:38:39.829Z,100592.80
2019-06-10T02:41:17.457Z,100598.55
2019-06-10T02:43:47.791Z,100597.53
2019-06-10T02:46:28.486Z,100603.07
2019-06-10T02:48:55.714Z,100603.88
2019-06-10T02:51:31.452Z,100609.63
2019-06-10T02:54:04.755Z,100605.94
2019-06-10T02:56:37.874Z,100600.81
2019-06-10T02:59:13.226Z,100601.62
2019-06-10T03:01:45.841Z,100608.42
2019-06-10T03:04:22.193Z,100613.36
2019-06-10T03:06:54.426Z,100605.96
2019-06-10T03:09:31.913Z,100598.74
2019-06-10T03:12:04.616Z,100592.78
2019-06-10T03:14:36.412Z,100597.89
2019-06-10T03:17:12.464Z,100600.33
2019-06-10T03:19:50.338Z,100593.94
2019-06-10T03:22:22.587Z,100596.78
2019-06-10T03:24:54.541Z,100598.61
2019-06-10T03:27:28.075Z,100592.61
2019-06-10T03:30:04.818Z,100600.98
2019-06-10T03:32:40.974Z,100595.14
2019-06-10T03:35:12.987Z,100596.84
2019-06-10T03:37:45.810Z,100591.08
2019-06-10T03:40:19.142Z,100589.31
2019-06-10T03:42:52.521Z,100594.30
2019-06-10T03:45:27.196Z,100588.40
2019-06-10T03:48:00.121Z,100586.41
2019-06-10T03:50:33.437Z,100594.17
2019-06-10T03:53:06.710Z,100577.79
2019-06-10T03:55:42.236Z,100580.26
2019-06-10T03:58:14.383Z,100583.42
2019-06-10T04:00:47.750Z,100581.77
2019-06-10T04:03:23.810Z,100580.34
